Accueil
METAR-TAF:

METAR-TAF

Aéroports :

Wittering, Angleterre

latitude: 52-37N, longitude: 000-28W, altitude: 84 m

Observation

Le bulletin a été fait il y a 52 minutes, à 10:50 UTC
Vent 10 kt de sud-ouest
Température 14°C
Humidité 82%
Pression 1030 hPa
Visibilité 10 km ou plus
pas de nuages en-dessous de 1500 mètres et pas de cumulonimbus.

METAR: EGXT 201050Z 23010KT CAVOK 14/11 Q1030 BLU

Heure: 12:42 (11:42 UTC)

Prévision

Le bulletin a été fait il y a 7 heures et 19 minutes, à 04:23 UTC
Prévision valable du 20 à 07 UTC au 20 à 15 UTC
Vent 6 kt de sud-ouest
Visibilité: 6000 m
Nuages épars à une hauteur de 4000 ft
brume
Probabilité 30% :
Temporairement
du 20 à 07 UTC au 20 à 09 UTC
Visibilité: 3000 m
brume
Evoluant progressivement
du 20 à 09 UTC au 20 à 11 UTC
Visibilité 10 km ou plus

TAF: EGXT 200423Z 2007/2015 23006KT 6000 BR SCT040 PROB30 TEMPO 2007/2009 3000 BR BECMG 2009/2011 9999 NSW

Observations et prévisions météorologiques de plus de 4000 aéroports (messages METAR et TAF).

Les stations disponibles sont représentées par des disques jaunes et rouges sur la carte.

Passer la souris dessus pour voir le nom de la station.

Cliquer dessus pour voir les observations et prévisions météorologiques.

Pour changer de carte: cliquez sur les boutons verts avec une croix noire pour zoomer, sur le bouton vert avec un tiret pour effectuer un zoom arrière, ou sur les flèches vertes pour les cartes adjacentes.


METAR-TAF: